Widener, Arkansas
Current Conditions -  °F | °C
As of 2:17 PM on Sunday 25 Jan 2015 (Local Time) from KAWM Reporting Station
Heavy Rain Heavy Rain  
Wind Chill: 39°   Ceiling: 3700
Heat Index: 46°   Visibility: 1.7mi
Dew Point: 42°   Wind: 17mph
Humidity: 86%   Direction: 310°NW
Pressure: 29.7"   Gusts: 29mph
Location:  35.02°N, 90.68°W
Report Text: KAWM 252017Z AUTO 31015G25KT 1 3/4SM +RA BR FEW024 BKN037 OVC045 08/06 A2970 RMK AO2 RAB01 PRESRR P0016 T00780056
Loading
Personal Weather Stations






























Interactive Weather Map New forecast layout! Learn more

10-Day Weather Forecast

Advertisements
Track Severe Weather on mobile